メインページ
METAR-TAF:

METAR-TAF

空港 :

カサネ, ボツワナ

緯度: 17-49S, 経度: 025-09E, 海抜: 968m

現時点の気象観測

当レポートは32分前の09:00(UTC)に作成
の風 13kt、北東から東/南東の間で変化する
気温 29°C
湿度 48%
気圧 1020 hPa
視程10km以上
高度3000ftの雲は散在している

METAR: FBKE 280900Z 08013KT 050V120 9999 SCT030 29/17 Q1020

時間: 11:32 (09:32 UTC)

予報

当レポートは3時間32分前の06:00(UTC)に作成
予報は28日の 09時(UTC)から 28日の 18時(UTC)まで有効
の風 8kt
視程10km以上
高度1400ftの雲は散在している
28日の 10時(UTC)から 28日の 12時(UTC)まで徐々に
高度2500ftの雲は散在している
高度3000ftの雲はほとんどない, 積乱雲.

TAF: FBKE 280600Z 2809/2818 10008KT 9999 SCT014 BECMG 2810/2812 SCT025 FEW030CB

4,000以上の空港の気象観測と天気予報(METAR報とTAF報)

利用可能な観測所は地図上に黄色い丸と赤い丸で示す。

丸の上にカーソルを重ねると観測所名を参照できる。

次にクリックすると気象観測と天気予報を参照できる。

マップの切り替え:黒色「×」印の緑ボタンをクリックして拡大、「-」印の緑ボタンをクリックして縮小、緑色の三角印をクリックして隣りの地図に切り替え


METAR-TAF: